sensor_id;sensor_type;location;lat;lon;timestamp;temperature;humidity
21039;DHT22;10678;51.002;4.786;2022-09-21T00:01:19;11.00;99.90
21039;DHT22;10678;51.002;4.786;2022-09-21T00:03:46;10.90;99.90
21039;DHT22;10678;51.002;4.786;2022-09-21T00:06:15;10.80;99.90
21039;DHT22;10678;51.002;4.786;2022-09-21T00:08:42;10.80;99.90
21039;DHT22;10678;51.002;4.786;2022-09-21T00:11:14;10.70;99.90
21039;DHT22;10678;51.002;4.786;2022-09-21T00:13:40;10.70;99.90
21039;DHT22;10678;51.002;4.786;2022-09-21T00:16:08;10.60;99.90
21039;DHT22;10678;51.002;4.786;2022-09-21T00:18:34;10.50;99.90
21039;DHT22;10678;51.002;4.786;2022-09-21T00:21:01;10.60;99.90
21039;DHT22;10678;51.002;4.786;2022-09-21T00:23:30;10.60;99.90
21039;DHT22;10678;51.002;4.786;2022-09-21T00:26:11;10.70;99.90
21039;DHT22;10678;51.002;4.786;2022-09-21T00:28:37;10.70;99.90
21039;DHT22;10678;51.002;4.786;2022-09-21T00:31:05;10.60;99.90
21039;DHT22;10678;51.002;4.786;2022-09-21T00:33:31;10.50;99.90
21039;DHT22;10678;51.002;4.786;2022-09-21T00:36:02;10.60;99.90
21039;DHT22;10678;51.002;4.786;2022-09-21T00:38:27;10.60;99.90
21039;DHT22;10678;51.002;4.786;2022-09-21T00:40:53;10.50;99.90
21039;DHT22;10678;51.002;4.786;2022-09-21T00:43:18;10.40;99.90
21039;DHT22;10678;51.002;4.786;2022-09-21T00:45:46;10.30;99.90
21039;DHT22;10678;51.002;4.786;2022-09-21T00:48:13;10.30;99.90
21039;DHT22;10678;51.002;4.786;2022-09-21T00:50:46;10.30;99.90
21039;DHT22;10678;51.002;4.786;2022-09-21T00:53:13;10.30;99.90
21039;DHT22;10678;51.002;4.786;2022-09-21T00:55:43;10.30;99.90
21039;DHT22;10678;51.002;4.786;2022-09-21T00:58:15;10.20;99.90
21039;DHT22;10678;51.002;4.786;2022-09-21T01:00:42;10.30;99.90
21039;DHT22;10678;51.002;4.786;2022-09-21T01:03:08;10.40;99.90
21039;DHT22;10678;51.002;4.786;2022-09-21T01:05:35;10.30;99.90
21039;DHT22;10678;51.002;4.786;2022-09-21T01:08:03;10.20;99.90
21039;DHT22;10678;51.002;4.786;2022-09-21T01:11:10;10.20;99.90
21039;DHT22;10678;51.002;4.786;2022-09-21T01:14:37;10.20;99.90
21039;DHT22;10678;51.002;4.786;2022-09-21T01:20:04;10.10;99.90
21039;DHT22;10678;51.002;4.786;2022-09-21T01:30:49;10.00;99.90
21039;DHT22;10678;51.002;4.786;2022-09-21T01:35:54;9.80;99.90
21039;DHT22;10678;51.002;4.786;2022-09-21T01:38:29;9.70;99.90
21039;DHT22;10678;51.002;4.786;2022-09-21T01:41:02;9.60;99.90
21039;DHT22;10678;51.002;4.786;2022-09-21T01:43:41;9.60;99.90
21039;DHT22;10678;51.002;4.786;2022-09-21T01:46:10;9.60;99.90
21039;DHT22;10678;51.002;4.786;2022-09-21T01:48:39;9.60;99.90
21039;DHT22;10678;51.002;4.786;2022-09-21T01:51:09;9.50;99.90
21039;DHT22;10678;51.002;4.786;2022-09-21T01:54:01;9.50;99.90
21039;DHT22;10678;51.002;4.786;2022-09-21T01:56:34;9.50;99.90
21039;DHT22;10678;51.002;4.786;2022-09-21T02:01:35;9.60;99.90
21039;DHT22;10678;51.002;4.786;2022-09-21T02:04:07;9.70;99.90
21039;DHT22;10678;51.002;4.786;2022-09-21T02:06:35;9.70;99.90
21039;DHT22;10678;51.002;4.786;2022-09-21T02:09:03;9.70;99.90
21039;DHT22;10678;51.002;4.786;2022-09-21T02:11:28;9.70;99.90
21039;DHT22;10678;51.002;4.786;2022-09-21T02:13:54;9.80;99.90
21039;DHT22;10678;51.002;4.786;2022-09-21T02:16:32;9.70;99.90
21039;DHT22;10678;51.002;4.786;2022-09-21T02:19:25;9.70;99.90
21039;DHT22;10678;51.002;4.786;2022-09-21T02:24:53;9.60;99.90
21039;DHT22;10678;51.002;4.786;2022-09-21T02:35:14;9.60;99.90
21039;DHT22;10678;51.002;4.786;2022-09-21T02:37:49;9.60;99.90
21039;DHT22;10678;51.002;4.786;2022-09-21T02:43:02;9.50;99.90
21039;DHT22;10678;51.002;4.786;2022-09-21T02:45:35;9.50;99.90
21039;DHT22;10678;51.002;4.786;2022-09-21T02:48:06;9.50;99.90
21039;DHT22;10678;51.002;4.786;2022-09-21T02:50:53;9.50;99.90
21039;DHT22;10678;51.002;4.786;2022-09-21T02:53:31;9.40;99.90
21039;DHT22;10678;51.002;4.786;2022-09-21T02:55:59;9.30;99.90
21039;DHT22;10678;51.002;4.786;2022-09-21T02:58:34;9.30;99.90
21039;DHT22;10678;51.002;4.786;2022-09-21T03:01:02;9.30;99.90
21039;DHT22;10678;51.002;4.786;2022-09-21T03:03:32;9.40;99.90
21039;DHT22;10678;51.002;4.786;2022-09-21T03:05:58;9.30;99.90
21039;DHT22;10678;51.002;4.786;2022-09-21T03:08:24;9.30;99.90
21039;DHT22;10678;51.002;4.786;2022-09-21T03:10:50;9.30;99.90
21039;DHT22;10678;51.002;4.786;2022-09-21T03:13:16;9.30;99.90
21039;DHT22;10678;51.002;4.786;2022-09-21T03:15:43;9.30;99.90
21039;DHT22;10678;51.002;4.786;2022-09-21T03:18:10;9.30;99.90
21039;DHT22;10678;51.002;4.786;2022-09-21T03:20:36;9.20;99.90
21039;DHT22;10678;51.002;4.786;2022-09-21T03:23:03;9.20;99.90
21039;DHT22;10678;51.002;4.786;2022-09-21T03:25:29;9.30;99.90
21039;DHT22;10678;51.002;4.786;2022-09-21T03:27:56;9.30;99.90
21039;DHT22;10678;51.002;4.786;2022-09-21T03:30:24;9.20;99.90
21039;DHT22;10678;51.002;4.786;2022-09-21T03:32:51;9.10;99.90
21039;DHT22;10678;51.002;4.786;2022-09-21T03:35:18;9.10;99.90
21039;DHT22;10678;51.002;4.786;2022-09-21T03:37:44;9.10;99.90
21039;DHT22;10678;51.002;4.786;2022-09-21T03:40:13;9.00;99.90
21039;DHT22;10678;51.002;4.786;2022-09-21T03:42:40;9.00;99.90
21039;DHT22;10678;51.002;4.786;2022-09-21T03:45:07;9.00;99.90
21039;DHT22;10678;51.002;4.786;2022-09-21T03:47:33;9.10;99.90
21039;DHT22;10678;51.002;4.786;2022-09-21T03:49:59;9.10;99.90
21039;DHT22;10678;51.002;4.786;2022-09-21T03:52:25;9.00;99.90
21039;DHT22;10678;51.002;4.786;2022-09-21T03:54:50;8.90;99.90
21039;DHT22;10678;51.002;4.786;2022-09-21T03:57:16;8.90;99.90
21039;DHT22;10678;51.002;4.786;2022-09-21T03:59:42;8.80;99.90
21039;DHT22;10678;51.002;4.786;2022-09-21T04:02:07;8.80;99.90
21039;DHT22;10678;51.002;4.786;2022-09-21T04:04:33;8.70;99.90
21039;DHT22;10678;51.002;4.786;2022-09-21T04:06:59;8.70;99.90
21039;DHT22;10678;51.002;4.786;2022-09-21T04:09:25;8.70;99.90
21039;DHT22;10678;51.002;4.786;2022-09-21T04:11:51;8.70;99.90
21039;DHT22;10678;51.002;4.786;2022-09-21T04:14:18;8.70;99.90
21039;DHT22;10678;51.002;4.786;2022-09-21T04:16:44;8.80;99.90
21039;DHT22;10678;51.002;4.786;2022-09-21T04:19:09;8.80;99.90
21039;DHT22;10678;51.002;4.786;2022-09-21T04:21:35;8.80;99.90
21039;DHT22;10678;51.002;4.786;2022-09-21T04:24:01;8.80;99.90
21039;DHT22;10678;51.002;4.786;2022-09-21T04:26:29;8.80;99.90
21039;DHT22;10678;51.002;4.786;2022-09-21T04:28:55;8.70;99.90
21039;DHT22;10678;51.002;4.786;2022-09-21T04:31:22;8.70;99.90
21039;DHT22;10678;51.002;4.786;2022-09-21T04:33:49;8.70;99.90
21039;DHT22;10678;51.002;4.786;2022-09-21T04:36:20;8.70;99.90
21039;DHT22;10678;51.002;4.786;2022-09-21T04:38:46;8.80;99.90
21039;DHT22;10678;51.002;4.786;2022-09-21T04:41:13;8.80;99.90
21039;DHT22;10678;51.002;4.786;2022-09-21T04:43:48;8.80;99.90
21039;DHT22;10678;51.002;4.786;2022-09-21T04:46:17;8.80;99.90
21039;DHT22;10678;51.002;4.786;2022-09-21T04:48:43;8.80;99.90
21039;DHT22;10678;51.002;4.786;2022-09-21T04:51:09;8.80;99.90
21039;DHT22;10678;51.002;4.786;2022-09-21T04:53:36;8.80;99.90
21039;DHT22;10678;51.002;4.786;2022-09-21T04:56:03;8.80;99.90
21039;DHT22;10678;51.002;4.786;2022-09-21T04:58:29;8.80;99.90
21039;DHT22;10678;51.002;4.786;2022-09-21T05:00:55;8.90;99.90
21039;DHT22;10678;51.002;4.786;2022-09-21T05:03:22;8.90;99.90
21039;DHT22;10678;51.002;4.786;2022-09-21T05:05:48;8.80;99.90
21039;DHT22;10678;51.002;4.786;2022-09-21T05:08:15;8.80;99.90
21039;DHT22;10678;51.002;4.786;2022-09-21T05:10:42;8.60;99.90
21039;DHT22;10678;51.002;4.786;2022-09-21T05:13:08;8.60;99.90
21039;DHT22;10678;51.002;4.786;2022-09-21T05:15:36;8.70;99.90
21039;DHT22;10678;51.002;4.786;2022-09-21T05:18:03;8.60;99.90
21039;DHT22;10678;51.002;4.786;2022-09-21T05:20:28;8.60;99.90
21039;DHT22;10678;51.002;4.786;2022-09-21T05:22:54;8.70;99.90
21039;DHT22;10678;51.002;4.786;2022-09-21T05:25:19;8.70;99.90
21039;DHT22;10678;51.002;4.786;2022-09-21T05:27:45;8.60;99.90
21039;DHT22;10678;51.002;4.786;2022-09-21T05:30:11;8.60;99.90
21039;DHT22;10678;51.002;4.786;2022-09-21T05:33:00;8.50;99.90
21039;DHT22;10678;51.002;4.786;2022-09-21T05:38:15;8.60;99.90
21039;DHT22;10678;51.002;4.786;2022-09-21T05:40:42;8.60;99.90
21039;DHT22;10678;51.002;4.786;2022-09-21T05:43:12;8.60;99.90
21039;DHT22;10678;51.002;4.786;2022-09-21T05:45:44;8.60;99.90
21039;DHT22;10678;51.002;4.786;2022-09-21T05:48:39;8.70;99.90
21039;DHT22;10678;51.002;4.786;2022-09-21T05:54:07;8.60;99.90
21039;DHT22;10678;51.002;4.786;2022-09-21T05:57:04;8.70;99.90
21039;DHT22;10678;51.002;4.786;2022-09-21T06:00:11;8.70;99.90
21039;DHT22;10678;51.002;4.786;2022-09-21T06:05:48;8.70;99.90
21039;DHT22;10678;51.002;4.786;2022-09-21T06:08:14;8.80;99.90
21039;DHT22;10678;51.002;4.786;2022-09-21T06:10:41;8.80;99.90
21039;DHT22;10678;51.002;4.786;2022-09-21T06:13:08;8.90;99.90
21039;DHT22;10678;51.002;4.786;2022-09-21T06:15:34;8.90;99.90
21039;DHT22;10678;51.002;4.786;2022-09-21T06:18:06;8.90;99.90
21039;DHT22;10678;51.002;4.786;2022-09-21T06:20:32;8.90;99.90
21039;DHT22;10678;51.002;4.786;2022-09-21T06:23:02;8.90;99.90
21039;DHT22;10678;51.002;4.786;2022-09-21T06:25:28;8.90;99.90
21039;DHT22;10678;51.002;4.786;2022-09-21T06:27:54;8.90;99.90
21039;DHT22;10678;51.002;4.786;2022-09-21T06:30:19;8.90;99.90
21039;DHT22;10678;51.002;4.786;2022-09-21T06:32:45;9.00;99.90
21039;DHT22;10678;51.002;4.786;2022-09-21T06:35:10;9.10;99.90
21039;DHT22;10678;51.002;4.786;2022-09-21T06:37:36;9.20;99.90
21039;DHT22;10678;51.002;4.786;2022-09-21T06:40:05;9.20;99.90
21039;DHT22;10678;51.002;4.786;2022-09-21T06:42:31;9.20;99.90
21039;DHT22;10678;51.002;4.786;2022-09-21T06:44:56;9.30;99.90
21039;DHT22;10678;51.002;4.786;2022-09-21T06:47:22;9.40;99.90
21039;DHT22;10678;51.002;4.786;2022-09-21T06:49:47;9.50;99.90
21039;DHT22;10678;51.002;4.786;2022-09-21T06:52:13;9.60;99.90
21039;DHT22;10678;51.002;4.786;2022-09-21T06:54:38;9.70;99.90
21039;DHT22;10678;51.002;4.786;2022-09-21T06:57:05;9.70;99.90
21039;DHT22;10678;51.002;4.786;2022-09-21T06:59:30;9.80;99.90
21039;DHT22;10678;51.002;4.786;2022-09-21T07:01:56;9.90;99.90
21039;DHT22;10678;51.002;4.786;2022-09-21T07:04:22;10.10;99.90
21039;DHT22;10678;51.002;4.786;2022-09-21T07:06:51;10.10;99.90
21039;DHT22;10678;51.002;4.786;2022-09-21T07:09:16;10.10;99.90
21039;DHT22;10678;51.002;4.786;2022-09-21T07:11:43;10.10;99.90
21039;DHT22;10678;51.002;4.786;2022-09-21T07:14:09;10.20;99.90
21039;DHT22;10678;51.002;4.786;2022-09-21T07:16:34;10.20;99.90
21039;DHT22;10678;51.002;4.786;2022-09-21T07:19:00;10.40;99.90
21039;DHT22;10678;51.002;4.786;2022-09-21T07:21:26;10.50;99.90
21039;DHT22;10678;51.002;4.786;2022-09-21T07:23:52;10.70;99.90
21039;DHT22;10678;51.002;4.786;2022-09-21T07:26:17;10.90;99.90
21039;DHT22;10678;51.002;4.786;2022-09-21T07:28:43;11.00;99.90
21039;DHT22;10678;51.002;4.786;2022-09-21T07:31:12;11.10;99.90
21039;DHT22;10678;51.002;4.786;2022-09-21T07:33:44;11.00;99.90
21039;DHT22;10678;51.002;4.786;2022-09-21T07:36:12;11.00;99.90
21039;DHT22;10678;51.002;4.786;2022-09-21T07:38:40;11.10;99.90
21039;DHT22;10678;51.002;4.786;2022-09-21T07:41:07;11.10;99.90
21039;DHT22;10678;51.002;4.786;2022-09-21T07:43:34;11.20;99.90
21039;DHT22;10678;51.002;4.786;2022-09-21T07:46:00;11.20;99.90
21039;DHT22;10678;51.002;4.786;2022-09-21T07:48:26;11.30;99.90
21039;DHT22;10678;51.002;4.786;2022-09-21T07:50:53;11.60;99.90
21039;DHT22;10678;51.002;4.786;2022-09-21T07:53:19;11.60;99.90
21039;DHT22;10678;51.002;4.786;2022-09-21T07:55:45;11.60;99.90
21039;DHT22;10678;51.002;4.786;2022-09-21T07:58:11;11.70;99.90
21039;DHT22;10678;51.002;4.786;2022-09-21T08:00:55;11.80;99.90
21039;DHT22;10678;51.002;4.786;2022-09-21T08:03:20;11.80;99.90
21039;DHT22;10678;51.002;4.786;2022-09-21T08:05:46;11.90;99.90
21039;DHT22;10678;51.002;4.786;2022-09-21T08:08:12;12.00;99.90
21039;DHT22;10678;51.002;4.786;2022-09-21T08:10:37;12.20;99.90
21039;DHT22;10678;51.002;4.786;2022-09-21T08:13:04;12.30;99.90
21039;DHT22;10678;51.002;4.786;2022-09-21T08:15:30;12.50;99.90
21039;DHT22;10678;51.002;4.786;2022-09-21T08:17:55;12.60;99.90
21039;DHT22;10678;51.002;4.786;2022-09-21T08:20:23;12.70;99.90
21039;DHT22;10678;51.002;4.786;2022-09-21T08:22:49;12.80;99.90
21039;DHT22;10678;51.002;4.786;2022-09-21T08:25:14;13.10;99.90
21039;DHT22;10678;51.002;4.786;2022-09-21T08:27:40;13.20;99.90
21039;DHT22;10678;51.002;4.786;2022-09-21T08:30:07;13.50;99.90
21039;DHT22;10678;51.002;4.786;2022-09-21T08:32:33;13.50;99.90
21039;DHT22;10678;51.002;4.786;2022-09-21T08:34:59;14.10;99.90
21039;DHT22;10678;51.002;4.786;2022-09-21T08:37:24;16.70;99.90
21039;DHT22;10678;51.002;4.786;2022-09-21T08:39:50;19.80;99.90
21039;DHT22;10678;51.002;4.786;2022-09-21T08:42:37;22.20;99.90
21039;DHT22;10678;51.002;4.786;2022-09-21T08:45:08;24.10;99.90
21039;DHT22;10678;51.002;4.786;2022-09-21T08:47:50;25.60;99.90
21039;DHT22;10678;51.002;4.786;2022-09-21T08:50:31;26.20;99.90
21039;DHT22;10678;51.002;4.786;2022-09-21T08:53:04;26.60;99.90
21039;DHT22;10678;51.002;4.786;2022-09-21T08:55:30;28.30;99.90
21039;DHT22;10678;51.002;4.786;2022-09-21T08:57:57;28.00;99.90
21039;DHT22;10678;51.002;4.786;2022-09-21T09:00:23;28.90;99.90
21039;DHT22;10678;51.002;4.786;2022-09-21T09:20:28;29.90;99.90
21039;DHT22;10678;51.002;4.786;2022-09-21T09:23:01;30.20;97.40
21039;DHT22;10678;51.002;4.786;2022-09-21T09:25:36;30.10;98.50
21039;DHT22;10678;51.002;4.786;2022-09-21T09:28:14;30.30;96.60
21039;DHT22;10678;51.002;4.786;2022-09-21T09:30:41;30.20;98.40
21039;DHT22;10678;51.002;4.786;2022-09-21T09:33:27;30.60;97.40
21039;DHT22;10678;51.002;4.786;2022-09-21T09:35:57;31.60;92.70
21039;DHT22;10678;51.002;4.786;2022-09-21T09:46:37;31.30;90.20
21039;DHT22;10678;51.002;4.786;2022-09-21T09:51:47;31.20;90.80
21039;DHT22;10678;51.002;4.786;2022-09-21T09:54:15;31.70;91.40
21039;DHT22;10678;51.002;4.786;2022-09-21T09:56:42;32.00;90.80
21039;DHT22;10678;51.002;4.786;2022-09-21T09:59:16;33.10;88.50
21039;DHT22;10678;51.002;4.786;2022-09-21T10:01:58;33.30;82.30
21039;DHT22;10678;51.002;4.786;2022-09-21T10:04:24;33.10;83.50
21039;DHT22;10678;51.002;4.786;2022-09-21T10:06:50;33.00;83.80
21039;DHT22;10678;51.002;4.786;2022-09-21T10:09:27;32.50;86.80
21039;DHT22;10678;51.002;4.786;2022-09-21T10:12:15;32.40;83.70
21039;DHT22;10678;51.002;4.786;2022-09-21T10:14:49;32.40;81.70
21039;DHT22;10678;51.002;4.786;2022-09-21T10:17:16;32.70;84.00
21039;DHT22;10678;51.002;4.786;2022-09-21T10:19:43;32.90;85.20
21039;DHT22;10678;51.002;4.786;2022-09-21T10:22:15;32.20;82.50
21039;DHT22;10678;51.002;4.786;2022-09-21T10:24:45;32.80;87.30
21039;DHT22;10678;51.002;4.786;2022-09-21T10:27:16;32.30;80.40
21039;DHT22;10678;51.002;4.786;2022-09-21T10:29:44;32.00;82.80
21039;DHT22;10678;51.002;4.786;2022-09-21T10:34:57;32.50;80.10
21039;DHT22;10678;51.002;4.786;2022-09-21T10:37:29;32.10;83.00
21039;DHT22;10678;51.002;4.786;2022-09-21T10:39:55;32.30;79.50
21039;DHT22;10678;51.002;4.786;2022-09-21T10:42:21;32.40;75.50
21039;DHT22;10678;51.002;4.786;2022-09-21T10:45:03;32.80;72.30
21039;DHT22;10678;51.002;4.786;2022-09-21T10:47:38;32.40;74.80
21039;DHT22;10678;51.002;4.786;2022-09-21T10:52:45;30.60;79.50
21039;DHT22;10678;51.002;4.786;2022-09-21T10:55:22;28.90;76.80
21039;DHT22;10678;51.002;4.786;2022-09-21T10:57:49;28.40;87.40
21039;DHT22;10678;51.002;4.786;2022-09-21T11:02:54;26.80;85.70
21039;DHT22;10678;51.002;4.786;2022-09-21T11:05:33;25.80;90.40
21039;DHT22;10678;51.002;4.786;2022-09-21T11:08:06;25.40;92.00
21039;DHT22;10678;51.002;4.786;2022-09-21T11:13:24;23.90;92.10
21039;DHT22;10678;51.002;4.786;2022-09-21T11:16:00;23.40;99.00
21039;DHT22;10678;51.002;4.786;2022-09-21T11:21:29;23.60;97.60
21039;DHT22;10678;51.002;4.786;2022-09-21T11:24:23;22.90;99.90
21039;DHT22;10678;51.002;4.786;2022-09-21T11:26:56;22.50;99.90
21039;DHT22;10678;51.002;4.786;2022-09-21T11:37:32;21.50;99.90
21039;DHT22;10678;51.002;4.786;2022-09-21T11:43:08;21.00;99.90
21039;DHT22;10678;51.002;4.786;2022-09-21T11:45:41;20.80;99.90
21039;DHT22;10678;51.002;4.786;2022-09-21T11:51:03;20.30;99.90
21039;DHT22;10678;51.002;4.786;2022-09-21T11:53:53;20.20;99.90
21039;DHT22;10678;51.002;4.786;2022-09-21T12:13:05;20.20;99.90
21039;DHT22;10678;51.002;4.786;2022-09-21T12:16:05;20.20;99.90
21039;DHT22;10678;51.002;4.786;2022-09-21T12:19:04;19.90;99.90
21039;DHT22;10678;51.002;4.786;2022-09-21T12:21:38;19.60;99.90
21039;DHT22;10678;51.002;4.786;2022-09-21T12:24:20;19.30;99.90
21039;DHT22;10678;51.002;4.786;2022-09-21T12:26:54;19.30;99.90
21039;DHT22;10678;51.002;4.786;2022-09-21T12:29:43;19.20;99.90
21039;DHT22;10678;51.002;4.786;2022-09-21T12:35:44;19.00;99.90
21039;DHT22;10678;51.002;4.786;2022-09-21T12:43:43;22.20;99.90
21039;DHT22;10678;51.002;4.786;2022-09-21T12:46:21;22.00;99.90
21039;DHT22;10678;51.002;4.786;2022-09-21T12:48:48;23.50;99.90
21039;DHT22;10678;51.002;4.786;2022-09-21T12:51:35;26.20;99.90
21039;DHT22;10678;51.002;4.786;2022-09-21T12:57:18;30.70;94.50
21039;DHT22;10678;51.002;4.786;2022-09-21T13:02:51;32.50;78.70
21039;DHT22;10678;51.002;4.786;2022-09-21T13:08:41;31.90;68.30
21039;DHT22;10678;51.002;4.786;2022-09-21T13:11:08;32.10;77.80
21039;DHT22;10678;51.002;4.786;2022-09-21T13:13:44;31.70;77.40
21039;DHT22;10678;51.002;4.786;2022-09-21T13:16:38;30.60;76.10
21039;DHT22;10678;51.002;4.786;2022-09-21T13:19:21;28.50;78.20
21039;DHT22;10678;51.002;4.786;2022-09-21T13:24:38;25.40;81.00
21039;DHT22;10678;51.002;4.786;2022-09-21T13:27:05;25.20;91.70
21039;DHT22;10678;51.002;4.786;2022-09-21T13:29:36;24.50;89.50
21039;DHT22;10678;51.002;4.786;2022-09-21T13:32:19;24.10;88.00
21039;DHT22;10678;51.002;4.786;2022-09-21T13:34:45;23.70;90.70
21039;DHT22;10678;51.002;4.786;2022-09-21T13:45:05;21.90;99.70
21039;DHT22;10678;51.002;4.786;2022-09-21T13:47:51;21.90;99.10
21039;DHT22;10678;51.002;4.786;2022-09-21T13:50:27;21.50;99.90
21039;DHT22;10678;51.002;4.786;2022-09-21T13:52:59;21.40;99.90
21039;DHT22;10678;51.002;4.786;2022-09-21T13:55:33;20.90;99.90
21039;DHT22;10678;51.002;4.786;2022-09-21T13:58:28;20.80;99.90
21039;DHT22;10678;51.002;4.786;2022-09-21T14:00:53;20.70;99.90
21039;DHT22;10678;51.002;4.786;2022-09-21T14:03:24;20.50;99.90
21039;DHT22;10678;51.002;4.786;2022-09-21T14:06:04;20.20;99.90
21039;DHT22;10678;51.002;4.786;2022-09-21T14:08:34;20.10;99.90
21039;DHT22;10678;51.002;4.786;2022-09-21T14:11:07;20.00;99.90
21039;DHT22;10678;51.002;4.786;2022-09-21T14:13:35;19.80;99.90
21039;DHT22;10678;51.002;4.786;2022-09-21T14:18:59;19.60;99.90
21039;DHT22;10678;51.002;4.786;2022-09-21T14:21:25;19.60;99.90
21039;DHT22;10678;51.002;4.786;2022-09-21T14:29:15;19.80;99.90
21039;DHT22;10678;51.002;4.786;2022-09-21T14:31:43;20.00;99.90
21039;DHT22;10678;51.002;4.786;2022-09-21T14:34:16;20.00;99.90
21039;DHT22;10678;51.002;4.786;2022-09-21T14:36:45;20.00;99.90
21039;DHT22;10678;51.002;4.786;2022-09-21T14:39:28;20.00;99.90
21039;DHT22;10678;51.002;4.786;2022-09-21T14:41:59;19.90;99.90
21039;DHT22;10678;51.002;4.786;2022-09-21T14:44:28;19.80;99.90
21039;DHT22;10678;51.002;4.786;2022-09-21T14:47:15;19.60;99.90
21039;DHT22;10678;51.002;4.786;2022-09-21T14:49:46;19.70;99.90
21039;DHT22;10678;51.002;4.786;2022-09-21T14:52:44;19.50;99.90
21039;DHT22;10678;51.002;4.786;2022-09-21T14:58:18;19.60;99.90
21039;DHT22;10678;51.002;4.786;2022-09-21T15:00:46;19.50;99.90
21039;DHT22;10678;51.002;4.786;2022-09-21T15:03:43;19.50;99.90
21039;DHT22;10678;51.002;4.786;2022-09-21T15:06:44;19.40;99.90
21039;DHT22;10678;51.002;4.786;2022-09-21T15:12:50;19.10;99.90
21039;DHT22;10678;51.002;4.786;2022-09-21T15:18:21;18.90;99.90
21039;DHT22;10678;51.002;4.786;2022-09-21T15:20:58;18.70;99.90
21039;DHT22;10678;51.002;4.786;2022-09-21T15:23:38;18.70;99.90
21039;DHT22;10678;51.002;4.786;2022-09-21T15:26:08;18.50;99.90
21039;DHT22;10678;51.002;4.786;2022-09-21T15:28:41;18.60;99.90
21039;DHT22;10678;51.002;4.786;2022-09-21T15:31:08;18.40;99.90
21039;DHT22;10678;51.002;4.786;2022-09-21T15:33:40;18.40;99.90
21039;DHT22;10678;51.002;4.786;2022-09-21T15:36:07;18.40;99.90
21039;DHT22;10678;51.002;4.786;2022-09-21T15:38:35;18.20;99.90
21039;DHT22;10678;51.002;4.786;2022-09-21T15:41:02;18.10;99.90
21039;DHT22;10678;51.002;4.786;2022-09-21T15:43:31;18.10;99.90
21039;DHT22;10678;51.002;4.786;2022-09-21T15:51:07;18.00;99.90
21039;DHT22;10678;51.002;4.786;2022-09-21T15:53:38;18.00;99.90
21039;DHT22;10678;51.002;4.786;2022-09-21T15:56:25;18.00;99.90
21039;DHT22;10678;51.002;4.786;2022-09-21T15:59:00;18.00;99.90
21039;DHT22;10678;51.002;4.786;2022-09-21T16:01:38;17.90;99.90
21039;DHT22;10678;51.002;4.786;2022-09-21T16:04:05;17.90;99.90
21039;DHT22;10678;51.002;4.786;2022-09-21T16:06:39;17.90;99.90
21039;DHT22;10678;51.002;4.786;2022-09-21T16:11:51;18.00;99.90
21039;DHT22;10678;51.002;4.786;2022-09-21T16:14:18;18.00;99.90
21039;DHT22;10678;51.002;4.786;2022-09-21T16:24:51;17.70;99.90
21039;DHT22;10678;51.002;4.786;2022-09-21T16:27:21;17.60;99.90
21039;DHT22;10678;51.002;4.786;2022-09-21T16:29:48;17.60;99.90
21039;DHT22;10678;51.002;4.786;2022-09-21T16:34:50;17.60;99.90
21039;DHT22;10678;51.002;4.786;2022-09-21T16:39:42;17.50;99.90
21039;DHT22;10678;51.002;4.786;2022-09-21T16:42:09;17.50;99.90
21039;DHT22;10678;51.002;4.786;2022-09-21T16:44:36;17.40;99.90
21039;DHT22;10678;51.002;4.786;2022-09-21T16:47:03;17.40;99.90
21039;DHT22;10678;51.002;4.786;2022-09-21T16:49:35;17.30;99.90
21039;DHT22;10678;51.002;4.786;2022-09-21T16:52:01;17.20;99.90
21039;DHT22;10678;51.002;4.786;2022-09-21T16:54:28;17.20;99.90
21039;DHT22;10678;51.002;4.786;2022-09-21T16:56:55;17.10;99.90
21039;DHT22;10678;51.002;4.786;2022-09-21T16:59:22;17.10;99.90
21039;DHT22;10678;51.002;4.786;2022-09-21T17:01:50;17.00;99.90
21039;DHT22;10678;51.002;4.786;2022-09-21T17:04:18;16.80;99.90
21039;DHT22;10678;51.002;4.786;2022-09-21T17:06:45;16.60;99.90
21039;DHT22;10678;51.002;4.786;2022-09-21T17:09:27;16.50;99.90
21039;DHT22;10678;51.002;4.786;2022-09-21T17:11:56;16.40;99.90
21039;DHT22;10678;51.002;4.786;2022-09-21T17:14:24;16.40;99.90
21039;DHT22;10678;51.002;4.786;2022-09-21T17:16:52;16.20;99.90
21039;DHT22;10678;51.002;4.786;2022-09-21T17:19:19;16.20;99.90
21039;DHT22;10678;51.002;4.786;2022-09-21T17:21:46;16.10;99.90
21039;DHT22;10678;51.002;4.786;2022-09-21T17:24:12;16.00;99.90
21039;DHT22;10678;51.002;4.786;2022-09-21T17:26:39;15.90;99.90
21039;DHT22;10678;51.002;4.786;2022-09-21T17:29:17;15.80;99.90
21039;DHT22;10678;51.002;4.786;2022-09-21T17:31:45;15.70;99.90
21039;DHT22;10678;51.002;4.786;2022-09-21T17:34:12;15.60;99.90
21039;DHT22;10678;51.002;4.786;2022-09-21T17:36:39;15.40;99.90
21039;DHT22;10678;51.002;4.786;2022-09-21T17:39:05;15.30;99.90
21039;DHT22;10678;51.002;4.786;2022-09-21T17:47:18;15.00;99.90
21039;DHT22;10678;51.002;4.786;2022-09-21T17:49:48;15.00;99.90
21039;DHT22;10678;51.002;4.786;2022-09-21T17:52:16;14.90;99.90
21039;DHT22;10678;51.002;4.786;2022-09-21T17:55:02;14.90;99.90
21039;DHT22;10678;51.002;4.786;2022-09-21T17:57:56;14.90;99.90
21039;DHT22;10678;51.002;4.786;2022-09-21T18:01:12;14.80;99.90
21039;DHT22;10678;51.002;4.786;2022-09-21T18:03:23;14.70;99.90
21039;DHT22;10678;51.002;4.786;2022-09-21T18:05:50;14.70;99.90
21039;DHT22;10678;51.002;4.786;2022-09-21T18:08:20;14.60;99.90
21039;DHT22;10678;51.002;4.786;2022-09-21T18:16:24;14.20;99.90
21039;DHT22;10678;51.002;4.786;2022-09-21T18:19:05;14.20;99.90
21039;DHT22;10678;51.002;4.786;2022-09-21T18:21:42;14.10;99.90
21039;DHT22;10678;51.002;4.786;2022-09-21T18:24:25;14.00;99.90
21039;DHT22;10678;51.002;4.786;2022-09-21T18:26:52;14.00;99.90
21039;DHT22;10678;51.002;4.786;2022-09-21T18:29:28;14.00;99.90
21039;DHT22;10678;51.002;4.786;2022-09-21T18:35:20;13.80;99.90
21039;DHT22;10678;51.002;4.786;2022-09-21T18:51:33;13.40;99.90
21039;DHT22;10678;51.002;4.786;2022-09-21T18:54:01;13.40;99.90
21039;DHT22;10678;51.002;4.786;2022-09-21T18:56:32;13.50;99.90
21039;DHT22;10678;51.002;4.786;2022-09-21T18:58:59;13.40;99.90
21039;DHT22;10678;51.002;4.786;2022-09-21T19:01:25;13.30;99.90
21039;DHT22;10678;51.002;4.786;2022-09-21T19:03:53;13.30;99.90
21039;DHT22;10678;51.002;4.786;2022-09-21T19:07:02;13.20;99.90
21039;DHT22;10678;51.002;4.786;2022-09-21T19:32:35;12.80;99.90
21039;DHT22;10678;51.002;4.786;2022-09-21T19:35:26;12.80;99.90
21039;DHT22;10678;51.002;4.786;2022-09-21T19:37:55;12.80;99.90
21039;DHT22;10678;51.002;4.786;2022-09-21T19:40:26;12.80;99.90
21039;DHT22;10678;51.002;4.786;2022-09-21T19:48:44;12.40;99.90
21039;DHT22;10678;51.002;4.786;2022-09-21T19:51:18;12.40;99.90
21039;DHT22;10678;51.002;4.786;2022-09-21T19:53:51;12.30;99.90
21039;DHT22;10678;51.002;4.786;2022-09-21T19:56:45;12.30;99.90